Terminal Aerodrome Forecast
Issued by NWS

Current Version | Previous Version | Text Only | Print | Product List | Glossary Off
Versions: 1 2 3 4 5 6 7 8 9 10 11 12 13 14 15

000
FTUS41 KPBZ 260500
TAFHLG
TAF
KHLG 260539Z 2606/2706 23004KT P6SM BKN020
     FM260700 23005KT P6SM SCT030
     FM261200 20005KT P6SM SKC=

USA.gov is the U.S. government's official web portal to all federal, state and local government web resources and services.